AirNav   Textron
 
 1506 users online  

27TE Sierra Providence Hospital Heliport
El Paso, Texas, USA


FAA INFORMATION EFFECTIVE 14 SEPTEMBER 2017

Location

FAA Identifier: 27TE
Lat/Long: 31-47-28.0200N / 106-15-48.9000W
31-47.467000N / 106-15.815000W
31.7911167 / -106.2635833
(estimated)
Elevation: 4002 ft. / 1220 m (estimated)
From city: 22 miles NE of EL PASO, TX
Time zone: UTC -6 (UTC -7 during Standard Time)
Zip code: 79936

Heliport Operations

Heliport use: Private use, MEDICAL USE.
Activation date: 06/2007
Control tower: no
ARTCC: ALBUQUERQUE CENTER
FSS: ALBUQUERQUE FLIGHT SERVICE STATION
Attendance: UNATNDD
Segmented circle: no
Lights: SS-SR

Heliport Communications

WX ASOS at ELP (6 nm W): PHONE 915-774-9497

Nearby radio navigation aids

VOR radial/distance  VOR name  Freq  Var
ELPr136/1.8EL PASO VORTAC115.2012E
EWMr165/9.6NEWMAN VORTAC112.4012E
CJSr031/12.5CIUDAD JUAREZ VOR/DME116.7011E

 
NDB name  Hdg/Dist  Freq  Var  ID
VALTR138/5.024208EEL . .-..

Heliport Services

Runway Information

Helipad H1

Dimensions: 40 x 40 ft. / 12 x 12 m
Surface: concrete
Runway edge lights: PERI
Traffic pattern: leftleft

Heliport Ownership and Management from official FAA records

Ownership: Privately-owned
Owner: SIERRA PROVIDENCE EASTSIDE HOSPITAL
13737 NOEL RD
DALLAS, TX 75240
Phone 915-832-2000
Manager: CHARLES ELLIS
3280 JOE BATTLE BLVD
EL PASO, TX 79938
Phone (915) 832-2910

Additional Remarks

A52-H1 60 FT BLDG 80 FT SW; 34 FT HOUSES 260 FT E; 15 FT LIGHT POLE 175 FT E & 15 FT LIGHT POLE 500 FT W OF LNDG AREA.

Instrument Procedures

There are no published instrument procedures at 27TE.

Some nearby airports with instrument procedures:

KELP - El Paso International Airport (6 nm W)
KBIF - Biggs Army Airfield (Fort Bliss) (7 nm NW)
KDNA - Dona Ana County International Jetport Airport (23 nm W)
KLRU - Las Cruces International Airport (45 nm NW)
KHMN - Holloman Air Force Base (64 nm N)
 
Loc | Ops | Rwys | IFR | FBO | Links
Com | Nav | Svcs | Stats | Notes

Chandler Aviation LLC
 
Aerial photo
No photo
 
Sectional chart

 
Airport distance calculator
Flying to Sierra Providence Hospital Heliport? Find the distance to fly.

From to 27TE

Sunrise and sunset
Times for 20-Sep-2017
 Local
(UTC-6)
 Zulu
(UTC)
Morning civil twilight06:2912:29
Sunrise06:5312:53
Sunset19:0401:04
Evening civil twilight19:2801:28

Current date and time
Zulu (UTC)  20-Sep-2017 20:49:53
Local (UTC-6)  20-Sep-2017 14:49:53
 
METAR
KELP 
6nm W 
201951Z 29007G19KT 10SM FEW100 33/08 A2998 RMK AO2 SLP070 T03280078
KBIF 
7nm NW 
201958Z 24012G18KT 10SM CLR 33/08 A2997 RMK A02A SLPNO
MMCS 
13nm SW 
201943Z 26009KT 10SM FEW050 31/07 A3002 RMK 8/100
TAF
KELP 
6nm W 
202005Z 2020/2118 27013G23KT P6SM FEW080 FM210300 27010KT P6SM FEW080
KBIF 
7nm NW 
201725Z 2017/2120 27009KT 9999 SKC QNH3000INS BECMG 2017/2018 26012G20KT 9999 FEW090 QNH2992INS BECMG 2100/2101 VRB06KT 9999 SCT090 QNH2993INS BECMG 2117/2118 22009KT 9999 FEW090 QNH2994INS TX32/2022Z TN20/2112Z
MMCS 
13nm SW 
201729Z 2018/2118 26010KT P6SM SCT030 BECMG 2102/2103 00000KT FM211500 32010KT P6SM SKC
NOTAMs
Click for the latest NOTAMs
NOTAMs are issued by the DoD/FAA and will open in a separate window not controlled by AirNav.

 

 
 

Would you like to see your business listed on this page?

 If your business provides an interesting product or service to pilots, flight crews, aircraft, or users of the Sierra Providence Hospital Heliport, you should consider listing it here.  To start the listing process, click on the button below
 
Add a business
 

Other Pages about Sierra Providence Hospital Heliport

Update a link
 
Copyright © AirNav, LLC. All rights reserved. Privacy Policy  Contact